sensor_id;sensor_type;location;lat;lon;timestamp;pressure;altitude;pressure_sealevel;temperature;humidity
28312;BME280;15572;48.810;9.148;2023-07-24T00:02:13;97470.13;;;18.23;100.00
28312;BME280;15572;48.810;9.148;2023-07-24T00:07:11;97449.72;;;18.03;100.00
28312;BME280;15572;48.810;9.148;2023-07-24T00:12:08;97431.66;;;18.02;100.00
28312;BME280;15572;48.810;9.148;2023-07-24T00:17:05;97415.81;;;18.09;100.00
28312;BME280;15572;48.810;9.148;2023-07-24T00:22:01;97416.72;;;18.20;100.00
28312;BME280;15572;48.810;9.148;2023-07-24T00:26:59;97409.56;;;18.14;100.00
28312;BME280;15572;48.810;9.148;2023-07-24T00:31:56;97403.47;;;18.07;100.00
28312;BME280;15572;48.810;9.148;2023-07-24T00:36:53;97411.47;;;17.77;100.00
28312;BME280;15572;48.810;9.148;2023-07-24T00:41:50;97396.38;;;17.74;100.00
28312;BME280;15572;48.810;9.148;2023-07-24T00:46:47;97378.75;;;17.60;100.00
28312;BME280;15572;48.810;9.148;2023-07-24T00:51:45;97367.72;;;17.55;100.00
28312;BME280;15572;48.810;9.148;2023-07-24T00:56:43;97366.03;;;17.49;100.00
28312;BME280;15572;48.810;9.148;2023-07-24T01:01:41;97358.59;;;17.44;100.00
28312;BME280;15572;48.810;9.148;2023-07-24T01:06:40;97355.25;;;17.37;100.00
28312;BME280;15572;48.810;9.148;2023-07-24T01:11:39;97345.63;;;17.30;100.00
28312;BME280;15572;48.810;9.148;2023-07-24T01:16:40;97328.28;;;17.19;100.00
28312;BME280;15572;48.810;9.148;2023-07-24T01:21:48;97330.44;;;17.17;100.00
28312;BME280;15572;48.810;9.148;2023-07-24T01:26:50;97323.56;;;17.09;100.00
28312;BME280;15572;48.810;9.148;2023-07-24T01:31:46;97321.22;;;17.23;100.00
28312;BME280;15572;48.810;9.148;2023-07-24T01:36:43;97328.13;;;17.31;100.00
28312;BME280;15572;48.810;9.148;2023-07-24T01:41:39;97334.06;;;17.22;100.00
28312;BME280;15572;48.810;9.148;2023-07-24T01:46:37;97332.78;;;17.03;100.00
28312;BME280;15572;48.810;9.148;2023-07-24T01:51:34;97341.19;;;16.97;100.00
28312;BME280;15572;48.810;9.148;2023-07-24T01:56:30;97336.31;;;16.99;100.00
28312;BME280;15572;48.810;9.148;2023-07-24T02:01:27;97321.63;;;17.10;100.00
28312;BME280;15572;48.810;9.148;2023-07-24T02:06:25;97326.34;;;17.14;100.00
28312;BME280;15572;48.810;9.148;2023-07-24T02:11:21;97328.78;;;17.16;100.00
28312;BME280;15572;48.810;9.148;2023-07-24T02:16:18;97310.13;;;17.08;100.00
28312;BME280;15572;48.810;9.148;2023-07-24T02:21:14;97310.09;;;17.03;100.00
28312;BME280;15572;48.810;9.148;2023-07-24T02:26:12;97310.63;;;17.05;100.00
28312;BME280;15572;48.810;9.148;2023-07-24T02:31:08;97313.78;;;17.18;100.00
28312;BME280;15572;48.810;9.148;2023-07-24T02:36:05;97313.06;;;17.28;100.00
28312;BME280;15572;48.810;9.148;2023-07-24T02:41:02;97312.28;;;17.33;100.00
28312;BME280;15572;48.810;9.148;2023-07-24T02:46:01;97295.25;;;17.25;100.00
28312;BME280;15572;48.810;9.148;2023-07-24T02:50:58;97290.25;;;17.17;100.00
28312;BME280;15572;48.810;9.148;2023-07-24T02:55:54;97284.44;;;17.09;100.00
28312;BME280;15572;48.810;9.148;2023-07-24T03:00:51;97282.06;;;17.17;100.00
28312;BME280;15572;48.810;9.148;2023-07-24T03:05:48;97260.78;;;17.24;100.00
28312;BME280;15572;48.810;9.148;2023-07-24T03:10:45;97275.72;;;17.12;100.00
28312;BME280;15572;48.810;9.148;2023-07-24T03:15:41;97258.88;;;16.93;100.00
28312;BME280;15572;48.810;9.148;2023-07-24T03:20:38;97233.84;;;17.06;100.00
28312;BME280;15572;48.810;9.148;2023-07-24T03:25:35;97248.38;;;17.12;100.00
28312;BME280;15572;48.810;9.148;2023-07-24T03:30:32;97274.50;;;16.98;100.00
28312;BME280;15572;48.810;9.148;2023-07-24T03:35:29;97263.81;;;16.96;100.00
28312;BME280;15572;48.810;9.148;2023-07-24T03:40:25;97261.97;;;17.02;100.00
28312;BME280;15572;48.810;9.148;2023-07-24T03:45:23;97262.56;;;17.09;100.00
28312;BME280;15572;48.810;9.148;2023-07-24T03:50:19;97254.91;;;17.11;100.00
28312;BME280;15572;48.810;9.148;2023-07-24T03:55:16;97253.84;;;17.12;100.00
28312;BME280;15572;48.810;9.148;2023-07-24T04:00:13;97251.28;;;17.00;100.00
28312;BME280;15572;48.810;9.148;2023-07-24T04:05:11;97250.16;;;16.96;100.00
28312;BME280;15572;48.810;9.148;2023-07-24T04:10:08;97264.66;;;16.97;100.00
28312;BME280;15572;48.810;9.148;2023-07-24T04:15:05;97248.25;;;16.97;100.00
28312;BME280;15572;48.810;9.148;2023-07-24T04:20:03;97237.97;;;17.09;100.00
28312;BME280;15572;48.810;9.148;2023-07-24T04:25:01;97232.53;;;17.14;100.00
28312;BME280;15572;48.810;9.148;2023-07-24T04:29:57;97227.66;;;17.21;100.00
28312;BME280;15572;48.810;9.148;2023-07-24T04:34:54;97208.47;;;17.16;100.00
28312;BME280;15572;48.810;9.148;2023-07-24T04:39:50;97200.63;;;17.24;100.00
28312;BME280;15572;48.810;9.148;2023-07-24T04:44:48;97212.50;;;17.40;100.00
28312;BME280;15572;48.810;9.148;2023-07-24T04:49:46;97198.28;;;17.43;100.00
28312;BME280;15572;48.810;9.148;2023-07-24T04:54:43;97203.78;;;17.48;100.00
28312;BME280;15572;48.810;9.148;2023-07-24T04:59:39;97206.28;;;17.55;100.00
28312;BME280;15572;48.810;9.148;2023-07-24T05:04:37;97198.44;;;17.63;100.00
28312;BME280;15572;48.810;9.148;2023-07-24T05:09:34;97198.19;;;17.65;100.00
28312;BME280;15572;48.810;9.148;2023-07-24T05:14:30;97199.03;;;17.71;100.00
28312;BME280;15572;48.810;9.148;2023-07-24T05:19:26;97190.31;;;17.79;100.00
28312;BME280;15572;48.810;9.148;2023-07-24T05:24:24;97193.66;;;17.91;100.00
28312;BME280;15572;48.810;9.148;2023-07-24T05:29:21;97201.38;;;17.99;100.00
28312;BME280;15572;48.810;9.148;2023-07-24T05:34:17;97220.25;;;18.00;100.00
28312;BME280;15572;48.810;9.148;2023-07-24T05:39:14;97232.59;;;18.03;100.00
28312;BME280;15572;48.810;9.148;2023-07-24T05:44:11;97249.06;;;18.13;100.00
28312;BME280;15572;48.810;9.148;2023-07-24T05:49:08;97245.81;;;18.21;100.00
28312;BME280;15572;48.810;9.148;2023-07-24T05:54:04;97257.06;;;18.30;100.00
28312;BME280;15572;48.810;9.148;2023-07-24T05:59:01;97253.53;;;18.39;100.00
28312;BME280;15572;48.810;9.148;2023-07-24T06:03:58;97256.63;;;18.53;100.00
28312;BME280;15572;48.810;9.148;2023-07-24T06:08:55;97255.03;;;18.62;100.00
28312;BME280;15572;48.810;9.148;2023-07-24T06:13:51;97246.81;;;18.67;100.00
28312;BME280;15572;48.810;9.148;2023-07-24T06:18:48;97245.47;;;18.80;100.00
28312;BME280;15572;48.810;9.148;2023-07-24T06:23:46;97243.84;;;18.89;100.00
28312;BME280;15572;48.810;9.148;2023-07-24T06:28:43;97246.84;;;19.03;100.00
28312;BME280;15572;48.810;9.148;2023-07-24T06:33:39;97227.97;;;19.21;100.00
28312;BME280;15572;48.810;9.148;2023-07-24T06:38:36;97224.63;;;19.34;100.00
28312;BME280;15572;48.810;9.148;2023-07-24T06:43:33;97207.94;;;19.46;100.00
28312;BME280;15572;48.810;9.148;2023-07-24T06:48:30;97201.88;;;19.54;100.00
28312;BME280;15572;48.810;9.148;2023-07-24T06:53:27;97216.97;;;19.57;100.00
28312;BME280;15572;48.810;9.148;2023-07-24T06:58:23;97212.53;;;19.66;100.00
28312;BME280;15572;48.810;9.148;2023-07-24T07:03:21;97197.72;;;19.72;100.00
28312;BME280;15572;48.810;9.148;2023-07-24T07:08:18;97194.41;;;19.80;100.00
28312;BME280;15572;48.810;9.148;2023-07-24T07:13:14;97199.88;;;19.85;100.00
28312;BME280;15572;48.810;9.148;2023-07-24T07:18:10;97220.19;;;19.89;100.00
28312;BME280;15572;48.810;9.148;2023-07-24T07:23:08;97233.91;;;19.94;100.00
28312;BME280;15572;48.810;9.148;2023-07-24T07:28:05;97245.44;;;20.01;100.00
28312;BME280;15572;48.810;9.148;2023-07-24T07:33:01;97248.72;;;20.08;98.12
28312;BME280;15572;48.810;9.148;2023-07-24T07:37:59;97256.59;;;20.25;92.59
28312;BME280;15572;48.810;9.148;2023-07-24T07:42:57;97265.31;;;20.47;89.95
28312;BME280;15572;48.810;9.148;2023-07-24T07:47:53;97283.63;;;20.77;85.85
28312;BME280;15572;48.810;9.148;2023-07-24T07:52:50;97291.50;;;20.94;85.36
28312;BME280;15572;48.810;9.148;2023-07-24T07:57:47;97300.50;;;20.99;85.84
28312;BME280;15572;48.810;9.148;2023-07-24T08:02:45;97311.50;;;21.05;86.79
28312;BME280;15572;48.810;9.148;2023-07-24T08:07:41;97333.44;;;21.20;86.88
28312;BME280;15572;48.810;9.148;2023-07-24T08:12:38;97342.25;;;21.17;88.42
28312;BME280;15572;48.810;9.148;2023-07-24T08:17:34;97320.00;;;21.08;91.92
28312;BME280;15572;48.810;9.148;2023-07-24T08:22:32;97299.56;;;20.75;98.20
28312;BME280;15572;48.810;9.148;2023-07-24T08:27:28;97301.38;;;20.21;100.00
28312;BME280;15572;48.810;9.148;2023-07-24T08:32:25;97275.13;;;19.79;100.00
28312;BME280;15572;48.810;9.148;2023-07-24T08:37:21;97237.56;;;19.54;100.00
28312;BME280;15572;48.810;9.148;2023-07-24T08:42:19;97233.44;;;19.52;100.00
28312;BME280;15572;48.810;9.148;2023-07-24T08:47:16;97194.19;;;19.56;100.00
28312;BME280;15572;48.810;9.148;2023-07-24T08:52:13;97186.22;;;19.65;100.00
28312;BME280;15572;48.810;9.148;2023-07-24T08:57:11;97199.34;;;19.83;100.00
28312;BME280;15572;48.810;9.148;2023-07-24T09:02:10;97193.78;;;19.98;100.00
28312;BME280;15572;48.810;9.148;2023-07-24T09:07:06;97198.13;;;20.09;100.00
28312;BME280;15572;48.810;9.148;2023-07-24T09:12:03;97224.19;;;20.32;100.00
28312;BME280;15572;48.810;9.148;2023-07-24T09:17:04;97227.06;;;20.61;100.00
28312;BME280;15572;48.810;9.148;2023-07-24T09:22:09;97207.47;;;20.73;100.00
28312;BME280;15572;48.810;9.148;2023-07-24T09:27:06;97214.47;;;20.94;100.00
28312;BME280;15572;48.810;9.148;2023-07-24T09:32:04;97218.50;;;21.07;100.00
28312;BME280;15572;48.810;9.148;2023-07-24T09:37:00;97230.16;;;20.93;100.00
28312;BME280;15572;48.810;9.148;2023-07-24T09:42:04;97230.22;;;20.78;100.00
28312;BME280;15572;48.810;9.148;2023-07-24T09:47:01;97230.28;;;20.68;100.00
28312;BME280;15572;48.810;9.148;2023-07-24T09:51:59;97233.69;;;20.55;100.00
28312;BME280;15572;48.810;9.148;2023-07-24T09:56:56;97270.00;;;20.47;100.00
28312;BME280;15572;48.810;9.148;2023-07-24T10:01:55;97271.09;;;20.51;100.00
28312;BME280;15572;48.810;9.148;2023-07-24T10:06:52;97279.66;;;20.44;100.00
28312;BME280;15572;48.810;9.148;2023-07-24T10:11:48;97287.09;;;20.39;100.00
28312;BME280;15572;48.810;9.148;2023-07-24T10:16:45;97293.41;;;20.29;100.00
28312;BME280;15572;48.810;9.148;2023-07-24T10:21:46;97298.34;;;20.27;100.00
28312;BME280;15572;48.810;9.148;2023-07-24T10:26:43;97295.66;;;20.17;100.00
28312;BME280;15572;48.810;9.148;2023-07-24T10:31:39;97295.66;;;20.17;100.00
28312;BME280;15572;48.810;9.148;2023-07-24T10:36:36;97299.22;;;20.12;100.00
28312;BME280;15572;48.810;9.148;2023-07-24T10:41:36;97315.75;;;19.97;100.00
28312;BME280;15572;48.810;9.148;2023-07-24T10:46:36;97315.50;;;19.79;100.00
28312;BME280;15572;48.810;9.148;2023-07-24T10:51:33;97313.84;;;19.52;100.00
28312;BME280;15572;48.810;9.148;2023-07-24T10:56:32;97328.91;;;19.24;100.00
28312;BME280;15572;48.810;9.148;2023-07-24T11:01:31;97336.25;;;19.04;100.00
28312;BME280;15572;48.810;9.148;2023-07-24T11:06:27;97310.16;;;18.86;100.00
28312;BME280;15572;48.810;9.148;2023-07-24T11:11:28;97307.38;;;18.71;100.00
28312;BME280;15572;48.810;9.148;2023-07-24T11:16:25;97252.03;;;18.69;100.00
28312;BME280;15572;48.810;9.148;2023-07-24T11:21:23;97251.75;;;18.70;100.00
28312;BME280;15572;48.810;9.148;2023-07-24T11:26:21;97225.72;;;18.68;100.00
28312;BME280;15572;48.810;9.148;2023-07-24T11:31:18;97193.66;;;18.68;100.00
28312;BME280;15572;48.810;9.148;2023-07-24T11:36:15;97127.03;;;18.78;100.00
28312;BME280;15572;48.810;9.148;2023-07-24T11:41:15;97186.53;;;19.28;100.00
28312;BME280;15572;48.810;9.148;2023-07-24T11:46:22;97171.94;;;20.81;100.00
28312;BME280;15572;48.810;9.148;2023-07-24T11:51:18;97155.00;;;21.32;100.00
28312;BME280;15572;48.810;9.148;2023-07-24T11:56:17;97193.50;;;21.03;100.00
28312;BME280;15572;48.810;9.148;2023-07-24T12:01:15;97220.44;;;20.62;100.00
28312;BME280;15572;48.810;9.148;2023-07-24T12:06:15;97229.09;;;20.30;100.00
28312;BME280;15572;48.810;9.148;2023-07-24T12:11:19;97216.56;;;19.99;100.00
28312;BME280;15572;48.810;9.148;2023-07-24T12:16:15;97226.25;;;19.86;100.00
28312;BME280;15572;48.810;9.148;2023-07-24T12:21:12;97225.16;;;19.77;100.00
28312;BME280;15572;48.810;9.148;2023-07-24T12:26:08;97225.72;;;19.79;100.00
28312;BME280;15572;48.810;9.148;2023-07-24T12:31:06;97229.84;;;19.82;100.00
28312;BME280;15572;48.810;9.148;2023-07-24T12:36:04;97234.22;;;19.77;100.00
28312;BME280;15572;48.810;9.148;2023-07-24T12:41:00;97227.91;;;19.87;100.00
28312;BME280;15572;48.810;9.148;2023-07-24T12:45:57;97218.81;;;19.92;100.00
28312;BME280;15572;48.810;9.148;2023-07-24T12:50:54;97212.16;;;20.13;100.00
28312;BME280;15572;48.810;9.148;2023-07-24T12:55:53;97197.69;;;20.56;100.00
28312;BME280;15572;48.810;9.148;2023-07-24T13:00:49;97179.00;;;20.92;100.00
28312;BME280;15572;48.810;9.148;2023-07-24T13:05:46;97155.69;;;21.19;100.00
28312;BME280;15572;48.810;9.148;2023-07-24T13:10:43;97177.34;;;21.30;100.00
28312;BME280;15572;48.810;9.148;2023-07-24T13:15:40;97177.50;;;21.68;100.00
28312;BME280;15572;48.810;9.148;2023-07-24T13:20:36;97162.13;;;22.76;100.00
28312;BME280;15572;48.810;9.148;2023-07-24T13:25:33;97159.31;;;23.13;100.00
28312;BME280;15572;48.810;9.148;2023-07-24T13:30:31;97140.31;;;23.25;100.00
28312;BME280;15572;48.810;9.148;2023-07-24T13:35:27;97138.81;;;24.20;100.00
28312;BME280;15572;48.810;9.148;2023-07-24T13:40:24;97122.72;;;24.08;100.00
28312;BME280;15572;48.810;9.148;2023-07-24T13:45:20;97109.22;;;23.93;100.00
28312;BME280;15572;48.810;9.148;2023-07-24T13:50:18;97096.53;;;23.65;95.74
28312;BME280;15572;48.810;9.148;2023-07-24T13:55:14;97072.44;;;24.56;95.70
28312;BME280;15572;48.810;9.148;2023-07-24T14:00:12;97059.50;;;25.09;79.52
28312;BME280;15572;48.810;9.148;2023-07-24T14:05:08;97051.09;;;25.23;75.45
28312;BME280;15572;48.810;9.148;2023-07-24T14:10:08;97051.50;;;25.39;72.51
28312;BME280;15572;48.810;9.148;2023-07-24T14:15:05;97054.78;;;25.80;72.14
28312;BME280;15572;48.810;9.148;2023-07-24T14:20:02;97063.31;;;25.92;67.09
28312;BME280;15572;48.810;9.148;2023-07-24T14:24:59;97069.38;;;25.24;68.52
28312;BME280;15572;48.810;9.148;2023-07-24T14:29:57;97062.28;;;25.09;65.74
28312;BME280;15572;48.810;9.148;2023-07-24T14:34:53;97052.16;;;25.05;65.41
28312;BME280;15572;48.810;9.148;2023-07-24T14:39:50;97051.03;;;25.76;63.04
28312;BME280;15572;48.810;9.148;2023-07-24T14:44:46;97036.56;;;25.79;58.89
28312;BME280;15572;48.810;9.148;2023-07-24T14:49:44;97039.47;;;25.74;60.44
28312;BME280;15572;48.810;9.148;2023-07-24T14:54:40;97019.00;;;25.53;63.40
28312;BME280;15572;48.810;9.148;2023-07-24T14:59:37;97031.94;;;25.35;63.65
28312;BME280;15572;48.810;9.148;2023-07-24T15:04:33;97028.34;;;25.66;61.25
28312;BME280;15572;48.810;9.148;2023-07-24T15:09:31;97015.97;;;25.72;61.45
28312;BME280;15572;48.810;9.148;2023-07-24T15:14:28;97021.22;;;25.82;60.77
28312;BME280;15572;48.810;9.148;2023-07-24T15:19:24;97038.78;;;24.98;65.49
28312;BME280;15572;48.810;9.148;2023-07-24T15:24:20;97043.41;;;24.67;67.94
28312;BME280;15572;48.810;9.148;2023-07-24T15:29:18;97055.44;;;24.26;69.78
28312;BME280;15572;48.810;9.148;2023-07-24T15:34:15;97057.66;;;23.75;73.90
28312;BME280;15572;48.810;9.148;2023-07-24T15:39:11;97056.94;;;23.56;75.93
28312;BME280;15572;48.810;9.148;2023-07-24T15:44:08;97070.81;;;23.37;78.38
28312;BME280;15572;48.810;9.148;2023-07-24T15:49:05;97072.94;;;23.26;80.21
28312;BME280;15572;48.810;9.148;2023-07-24T15:54:02;97052.78;;;23.26;80.82
28312;BME280;15572;48.810;9.148;2023-07-24T15:59:02;97036.56;;;23.52;80.22
28312;BME280;15572;48.810;9.148;2023-07-24T16:03:58;97042.78;;;23.43;80.99
28312;BME280;15572;48.810;9.148;2023-07-24T16:08:56;97027.13;;;23.25;82.19
28312;BME280;15572;48.810;9.148;2023-07-24T16:13:55;97050.94;;;23.07;83.79
28312;BME280;15572;48.810;9.148;2023-07-24T16:19:10;97048.72;;;22.77;87.50
28312;BME280;15572;48.810;9.148;2023-07-24T16:24:08;97055.34;;;22.57;89.02
28312;BME280;15572;48.810;9.148;2023-07-24T16:29:06;97056.72;;;22.41;90.10
28312;BME280;15572;48.810;9.148;2023-07-24T16:34:02;97054.56;;;22.38;90.31
28312;BME280;15572;48.810;9.148;2023-07-24T16:38:59;97068.13;;;22.35;91.61
28312;BME280;15572;48.810;9.148;2023-07-24T16:43:57;97074.28;;;22.08;85.43
28312;BME280;15572;48.810;9.148;2023-07-24T16:48:53;97062.91;;;21.91;87.49
28312;BME280;15572;48.810;9.148;2023-07-24T16:53:50;97125.19;;;21.68;85.15
28312;BME280;15572;48.810;9.148;2023-07-24T16:58:46;97091.16;;;19.84;100.00
28312;BME280;15572;48.810;9.148;2023-07-24T17:03:45;97102.88;;;19.20;100.00
28312;BME280;15572;48.810;9.148;2023-07-24T17:08:41;97102.03;;;19.25;100.00
28312;BME280;15572;48.810;9.148;2023-07-24T17:13:38;97118.19;;;19.37;100.00
28312;BME280;15572;48.810;9.148;2023-07-24T17:18:36;97131.69;;;19.23;100.00
28312;BME280;15572;48.810;9.148;2023-07-24T17:23:34;97140.47;;;19.10;100.00
28312;BME280;15572;48.810;9.148;2023-07-24T17:28:30;97134.41;;;19.08;100.00
28312;BME280;15572;48.810;9.148;2023-07-24T17:33:26;97150.59;;;19.24;100.00
28312;BME280;15572;48.810;9.148;2023-07-24T17:38:23;97141.78;;;19.38;100.00
28312;BME280;15572;48.810;9.148;2023-07-24T17:43:21;97146.69;;;19.56;100.00
28312;BME280;15572;48.810;9.148;2023-07-24T17:48:17;97138.44;;;19.66;100.00
28312;BME280;15572;48.810;9.148;2023-07-24T17:53:14;97132.41;;;19.69;100.00
28312;BME280;15572;48.810;9.148;2023-07-24T17:58:10;97136.75;;;19.80;100.00
28312;BME280;15572;48.810;9.148;2023-07-24T18:03:08;97137.28;;;19.82;100.00
28312;BME280;15572;48.810;9.148;2023-07-24T18:08:05;97152.59;;;19.98;100.00
28312;BME280;15572;48.810;9.148;2023-07-24T18:13:01;97147.47;;;19.71;100.00
28312;BME280;15572;48.810;9.148;2023-07-24T18:17:58;97161.53;;;19.55;100.00
28312;BME280;15572;48.810;9.148;2023-07-24T18:22:56;97174.72;;;19.48;100.00
28312;BME280;15572;48.810;9.148;2023-07-24T18:27:52;97171.97;;;19.43;100.00
28312;BME280;15572;48.810;9.148;2023-07-24T18:32:49;97181.28;;;19.52;100.00
28312;BME280;15572;48.810;9.148;2023-07-24T18:37:45;97181.56;;;19.60;100.00
28312;BME280;15572;48.810;9.148;2023-07-24T18:42:43;97183.50;;;19.55;100.00
28312;BME280;15572;48.810;9.148;2023-07-24T18:47:39;97191.19;;;19.38;100.00
28312;BME280;15572;48.810;9.148;2023-07-24T18:52:36;97191.72;;;19.24;100.00
28312;BME280;15572;48.810;9.148;2023-07-24T18:57:33;97196.69;;;19.12;100.00
28312;BME280;15572;48.810;9.148;2023-07-24T19:02:31;97200.25;;;18.98;100.00
28312;BME280;15572;48.810;9.148;2023-07-24T19:07:27;97197.50;;;18.77;100.00
28312;BME280;15572;48.810;9.148;2023-07-24T19:12:24;97197.75;;;18.71;100.00
28312;BME280;15572;48.810;9.148;2023-07-24T19:17:20;97200.47;;;18.56;100.00
28312;BME280;15572;48.810;9.148;2023-07-24T19:22:18;97192.19;;;18.45;100.00
28312;BME280;15572;48.810;9.148;2023-07-24T19:27:14;97207.22;;;18.38;100.00
28312;BME280;15572;48.810;9.148;2023-07-24T19:32:11;97202.84;;;18.32;100.00
28312;BME280;15572;48.810;9.148;2023-07-24T19:37:07;97201.44;;;18.24;100.00
28312;BME280;15572;48.810;9.148;2023-07-24T19:42:06;97194.28;;;18.13;100.00
28312;BME280;15572;48.810;9.148;2023-07-24T19:47:03;97201.38;;;18.04;100.00
28312;BME280;15572;48.810;9.148;2023-07-24T19:52:00;97202.94;;;17.90;100.00
28312;BME280;15572;48.810;9.148;2023-07-24T19:56:57;97208.13;;;17.81;100.00
28312;BME280;15572;48.810;9.148;2023-07-24T20:01:56;97205.59;;;17.75;100.00
28312;BME280;15572;48.810;9.148;2023-07-24T20:06:52;97213.78;;;17.70;100.00
28312;BME280;15572;48.810;9.148;2023-07-24T20:11:49;97215.41;;;17.65;100.00
28312;BME280;15572;48.810;9.148;2023-07-24T20:16:45;97219.50;;;17.63;100.00
28312;BME280;15572;48.810;9.148;2023-07-24T20:21:43;97214.25;;;17.56;100.00
28312;BME280;15572;48.810;9.148;2023-07-24T20:26:40;97201.81;;;17.39;100.00
28312;BME280;15572;48.810;9.148;2023-07-24T20:31:36;97209.66;;;17.25;100.00
28312;BME280;15572;48.810;9.148;2023-07-24T20:36:33;97217.50;;;17.16;100.00
28312;BME280;15572;48.810;9.148;2023-07-24T20:41:32;97220.16;;;17.06;100.00
28312;BME280;15572;48.810;9.148;2023-07-24T20:46:29;97225.94;;;17.10;100.00
28312;BME280;15572;48.810;9.148;2023-07-24T20:51:25;97224.41;;;17.24;100.00
28312;BME280;15572;48.810;9.148;2023-07-24T20:56:22;97216.44;;;17.17;100.00
28312;BME280;15572;48.810;9.148;2023-07-24T21:01:20;97221.06;;;17.17;100.00
28312;BME280;15572;48.810;9.148;2023-07-24T21:06:18;97222.13;;;17.11;100.00
28312;BME280;15572;48.810;9.148;2023-07-24T21:11:14;97221.53;;;17.04;100.00
28312;BME280;15572;48.810;9.148;2023-07-24T21:16:11;97227.72;;;16.94;100.00
28312;BME280;15572;48.810;9.148;2023-07-24T21:21:09;97226.84;;;16.89;100.00
28312;BME280;15572;48.810;9.148;2023-07-24T21:26:06;97232.78;;;16.80;100.00
28312;BME280;15572;48.810;9.148;2023-07-24T21:31:06;97242.56;;;16.71;100.00
28312;BME280;15572;48.810;9.148;2023-07-24T21:36:03;97247.97;;;16.66;100.00
28312;BME280;15572;48.810;9.148;2023-07-24T21:41:01;97251.50;;;16.67;100.00
28312;BME280;15572;48.810;9.148;2023-07-24T21:45:58;97258.47;;;16.58;100.00
28312;BME280;15572;48.810;9.148;2023-07-24T21:50:54;97251.63;;;16.55;100.00
28312;BME280;15572;48.810;9.148;2023-07-24T21:55:51;97243.88;;;16.47;100.00
28312;BME280;15572;48.810;9.148;2023-07-24T22:00:48;97249.59;;;16.46;100.00
28312;BME280;15572;48.810;9.148;2023-07-24T22:05:45;97241.22;;;16.52;100.00
28312;BME280;15572;48.810;9.148;2023-07-24T22:10:41;97240.78;;;16.60;100.00
28312;BME280;15572;48.810;9.148;2023-07-24T22:15:38;97242.84;;;16.75;100.00
28312;BME280;15572;48.810;9.148;2023-07-24T22:20:36;97247.03;;;16.82;100.00
28312;BME280;15572;48.810;9.148;2023-07-24T22:25:33;97233.41;;;16.88;100.00
28312;BME280;15572;48.810;9.148;2023-07-24T22:30:30;97231.56;;;16.93;100.00
28312;BME280;15572;48.810;9.148;2023-07-24T22:35:27;97217.09;;;16.98;100.00
28312;BME280;15572;48.810;9.148;2023-07-24T22:40:27;97215.72;;;17.00;100.00
28312;BME280;15572;48.810;9.148;2023-07-24T22:45:23;97217.94;;;16.98;100.00
28312;BME280;15572;48.810;9.148;2023-07-24T22:50:20;97209.97;;;16.97;100.00
28312;BME280;15572;48.810;9.148;2023-07-24T22:55:17;97217.34;;;16.96;100.00
28312;BME280;15572;48.810;9.148;2023-07-24T23:00:15;97216.53;;;16.96;100.00
28312;BME280;15572;48.810;9.148;2023-07-24T23:05:12;97208.63;;;16.99;100.00
28312;BME280;15572;48.810;9.148;2023-07-24T23:10:09;97206.72;;;17.00;100.00
28312;BME280;15572;48.810;9.148;2023-07-24T23:15:06;97217.66;;;17.00;100.00
28312;BME280;15572;48.810;9.148;2023-07-24T23:20:06;97207.28;;;17.02;100.00
28312;BME280;15572;48.810;9.148;2023-07-24T23:25:03;97193.91;;;17.05;100.00
28312;BME280;15572;48.810;9.148;2023-07-24T23:30:00;97193.72;;;17.17;100.00
28312;BME280;15572;48.810;9.148;2023-07-24T23:34:57;97180.38;;;17.25;100.00
28312;BME280;15572;48.810;9.148;2023-07-24T23:39:54;97182.06;;;17.32;100.00
28312;BME280;15572;48.810;9.148;2023-07-24T23:44:51;97176.63;;;17.37;100.00
28312;BME280;15572;48.810;9.148;2023-07-24T23:49:47;97161.00;;;17.32;100.00
28312;BME280;15572;48.810;9.148;2023-07-24T23:54:44;97160.47;;;17.30;100.00
28312;BME280;15572;48.810;9.148;2023-07-24T23:59:41;97158.81;;;17.29;100.00
